Time;durP1;ratioP1;P1;durP2;ratioP2;P2;SDS_P1;SDS_P2;PMS_P1;PMS_P2;Temp;Humidity;BMP_temperature;BMP_pressure;BME280_temperature;BME280_humidity;BME280_pressure;Samples;Min_cycle;Max_cycle;Signal;HPM_P1;HPM_P2
2021/12/27 00:00:29;;;;;;;6.57;5.50;;;5.70;99.90;;;;;;5064197;28;20202;-46
2021/12/27 00:02:58;;;;;;;7.23;6.07;;;5.70;99.90;;;;;;5066137;28;20185;-43
2021/12/27 00:05:23;;;;;;;6.53;4.83;;;5.60;99.90;;;;;;5068319;28;20786;-42
2021/12/27 00:07:51;;;;;;;7.77;6.10;;;5.50;99.90;;;;;;5069240;28;20422;-44
2021/12/27 00:10:18;;;;;;;7.50;5.60;;;5.60;99.90;;;;;;5069375;28;20434;-43
2021/12/27 00:12:45;;;;;;;6.80;5.80;;;5.70;99.90;;;;;;5055581;28;20432;-43
2021/12/27 00:15:13;;;;;;;5.83;5.23;;;5.50;99.90;;;;;;5068356;28;20403;-44
2021/12/27 00:17:40;;;;;;;6.13;4.63;;;5.60;99.90;;;;;;5069213;28;20446;-42
2021/12/27 00:20:07;;;;;;;4.63;4.00;;;5.80;99.90;;;;;;5084159;28;20824;-43
2021/12/27 00:22:33;;;;;;;7.90;5.20;;;5.60;99.90;;;;;;5089195;28;20491;-42
2021/12/27 00:24:58;;;;;;;6.40;5.00;;;5.60;99.90;;;;;;5077199;28;20412;-42
2021/12/27 00:27:25;;;;;;;5.37;4.57;;;5.70;99.90;;;;;;5050019;28;20219;-42
2021/12/27 00:29:52;;;;;;;4.80;4.30;;;5.80;99.90;;;;;;5067520;28;20193;-42
2021/12/27 00:32:18;;;;;;;4.83;4.33;;;5.80;99.90;;;;;;5069020;28;20427;-43
2021/12/27 00:34:44;;;;;;;5.63;4.60;;;5.60;99.90;;;;;;5068313;28;20496;-42
2021/12/27 00:37:10;;;;;;;5.90;4.73;;;5.70;99.90;;;;;;5069191;28;20462;-43
2021/12/27 00:39:36;;;;;;;5.17;4.43;;;5.80;99.90;;;;;;5068789;28;20212;-42
2021/12/27 00:42:03;;;;;;;5.73;5.00;;;5.70;99.90;;;;;;5060664;28;20195;-45
2021/12/27 00:44:30;;;;;;;6.10;4.83;;;5.70;99.90;;;;;;5067245;28;20415;-43
2021/12/27 00:46:56;;;;;;;5.10;4.60;;;5.70;99.90;;;;;;5068469;28;20415;-42
2021/12/27 00:49:22;;;;;;;6.27;5.20;;;5.70;99.90;;;;;;5068740;28;20419;-45
2021/12/27 00:51:48;;;;;;;6.07;5.37;;;5.60;99.90;;;;;;5068582;28;20423;-43
2021/12/27 00:54:14;;;;;;;6.03;5.20;;;5.60;99.90;;;;;;5067896;28;20810;-42
2021/12/27 00:56:40;;;;;;;7.53;5.33;;;5.80;99.90;;;;;;5063266;28;20473;-42
2021/12/27 00:59:05;;;;;;;6.10;5.20;;;5.60;99.90;;;;;;5061815;28;20794;-42
2021/12/27 01:01:31;;;;;;;6.77;4.90;;;5.60;99.90;;;;;;5066587;28;20542;-43
2021/12/27 01:03:59;;;;;;;6.13;5.20;;;5.60;99.90;;;;;;5067572;28;20177;-43
2021/12/27 01:06:25;;;;;;;5.90;4.93;;;5.60;99.90;;;;;;5068454;28;20212;-42
2021/12/27 01:08:52;;;;;;;6.57;5.13;;;5.70;99.90;;;;;;5068180;28;20751;-47
2021/12/27 01:11:40;;;;;;;7.33;5.13;;;5.80;99.90;;;;;;5066940;28;20415;-43
2021/12/27 01:14:11;;;;;;;6.00;5.40;;;5.60;99.90;;;;;;5061587;28;20443;-44
2021/12/27 01:16:38;;;;;;;6.63;5.43;;;5.60;99.90;;;;;;5068115;28;20415;-42
2021/12/27 01:19:06;;;;;;;6.90;6.20;;;5.90;99.90;;;;;;5078547;28;20786;-42
2021/12/27 01:21:32;;;;;;;6.10;5.50;;;5.60;99.90;;;;;;5075829;28;20492;-43
2021/12/27 01:23:58;;;;;;;6.83;5.37;;;5.60;99.90;;;;;;5087313;28;20406;-42
2021/12/27 01:26:25;;;;;;;6.70;5.60;;;5.70;99.90;;;;;;5056536;28;20418;-42
2021/12/27 01:28:53;;;;;;;5.93;5.17;;;5.70;99.90;;;;;;5061975;28;20445;-42
2021/12/27 01:31:19;;;;;;;6.87;6.10;;;5.60;99.90;;;;;;5068098;28;20499;-43
2021/12/27 01:33:46;;;;;;;7.67;5.83;;;5.80;99.90;;;;;;5067231;28;20506;-43
2021/12/27 01:36:13;;;;;;;6.43;5.70;;;5.90;99.90;;;;;;5067004;28;20195;-42
2021/12/27 01:38:40;;;;;;;6.30;5.70;;;5.80;99.90;;;;;;5067385;28;20404;-44
2021/12/27 01:41:09;;;;;;;6.43;5.70;;;5.70;99.90;;;;;;5067864;28;20510;-42
2021/12/27 01:43:36;;;;;;;7.17;5.93;;;5.70;99.90;;;;;;5060308;28;20785;-43
2021/12/27 01:46:04;;;;;;;6.80;5.53;;;5.60;99.90;;;;;;5066103;28;20423;-42
2021/12/27 01:48:36;;;;;;;5.97;5.47;;;5.90;99.90;;;;;;5067670;28;20510;-43
2021/12/27 01:51:05;;;;;;;7.83;6.47;;;5.90;99.90;;;;;;5067395;28;20424;-43
2021/12/27 01:53:32;;;;;;;5.90;5.20;;;5.80;99.90;;;;;;5066871;28;20778;-42
2021/12/27 01:55:59;;;;;;;6.33;5.83;;;5.70;99.90;;;;;;5067660;28;20460;-42
2021/12/27 01:58:26;;;;;;;5.53;4.90;;;5.70;99.90;;;;;;5056726;28;20466;-43
2021/12/27 02:00:57;;;;;;;5.83;5.23;;;5.90;99.90;;;;;;5065483;28;20626;-44
2021/12/27 02:03:26;;;;;;;6.97;5.73;;;5.90;99.90;;;;;;5066747;28;20404;-43
2021/12/27 02:05:52;;;;;;;5.20;4.70;;;5.90;99.90;;;;;;5067198;28;20415;-43
2021/12/27 02:08:18;;;;;;;5.83;5.23;;;5.90;99.90;;;;;;5067249;28;20413;-45
2021/12/27 02:10:44;;;;;;;6.03;5.43;;;5.70;99.90;;;;;;5067099;28;20609;-43
2021/12/27 02:13:10;;;;;;;7.33;5.77;;;5.60;99.90;;;;;;5057381;28;20932;-42
2021/12/27 02:15:36;;;;;;;7.90;5.60;;;6.00;99.90;;;;;;5067134;28;20968;-43
2021/12/27 02:18:03;;;;;;;5.97;5.37;;;5.80;99.90;;;;;;5067267;28;20435;-43
2021/12/27 02:20:32;;;;;;;6.30;5.30;;;6.00;99.90;;;;;;5066695;28;21004;-42
2021/12/27 02:23:01;;;;;;;6.43;5.07;;;5.80;99.90;;;;;;5066483;28;20427;-42
2021/12/27 02:25:32;;;;;;;5.23;4.73;;;5.90;99.90;;;;;;5067085;28;20575;-43
2021/12/27 02:28:01;;;;;;;5.77;5.17;;;5.90;99.90;;;;;;5059508;28;20427;-44
2021/12/27 02:30:26;;;;;;;6.17;5.10;;;5.80;99.90;;;;;;5060321;28;20499;-42
2021/12/27 02:32:59;;;;;;;6.30;5.70;;;6.00;99.90;;;;;;5066104;28;20518;-42
2021/12/27 02:35:27;;;;;;;5.13;4.40;;;5.90;99.90;;;;;;5066764;28;20185;-43
2021/12/27 02:37:54;;;;;;;5.40;4.63;;;6.00;99.90;;;;;;5064031;28;20455;-44
2021/12/27 02:40:22;;;;;;;5.47;4.97;;;6.10;99.90;;;;;;5069484;28;20824;-42
2021/12/27 02:43:08;;;;;;;5.90;5.30;;;6.00;99.90;;;;;;5072268;28;20440;-45
2021/12/27 02:45:46;;;;;;;6.30;5.20;;;6.00;99.90;;;;;;5061948;28;20412;-44
2021/12/27 02:48:14;;;;;;;5.70;5.20;;;5.80;99.90;;;;;;5068647;28;20411;-43
2021/12/27 02:50:41;;;;;;;4.77;4.27;;;6.00;99.90;;;;;;5070778;28;20484;-44
2021/12/27 02:53:08;;;;;;;6.07;4.87;;;6.00;99.90;;;;;;5070277;28;20646;-43
2021/12/27 02:55:34;;;;;;;4.97;4.37;;;5.90;99.90;;;;;;5070655;28;20454;-43
2021/12/27 02:58:00;;;;;;;5.40;4.20;;;5.80;99.90;;;;;;5063286;28;20448;-43
2021/12/27 03:00:32;;;;;;;5.73;4.87;;;6.00;99.90;;;;;;5069458;28;20463;-43
2021/12/27 03:02:58;;;;;;;6.47;4.87;;;5.90;99.90;;;;;;5069768;28;20477;-44
2021/12/27 03:05:27;;;;;;;4.93;4.43;;;5.80;99.90;;;;;;5070578;28;20464;-44
2021/12/27 03:07:54;;;;;;;4.90;3.90;;;5.90;99.90;;;;;;5070821;28;20442;-44
2021/12/27 03:10:24;;;;;;;5.57;4.73;;;6.00;99.90;;;;;;5070069;28;20419;-43
2021/12/27 03:12:53;;;;;;;4.93;4.47;;;6.00;99.90;;;;;;5066864;28;20439;-43
2021/12/27 03:15:22;;;;;;;5.00;4.30;;;6.00;99.90;;;;;;5064822;28;20544;-42
2021/12/27 03:17:49;;;;;;;5.70;4.87;;;6.10;99.90;;;;;;5070086;28;20427;-43
2021/12/27 03:20:18;;;;;;;5.10;4.30;;;6.00;99.90;;;;;;5090522;28;20456;-45
2021/12/27 03:22:44;;;;;;;5.20;4.20;;;6.10;99.90;;;;;;5086386;28;20557;-43
2021/12/27 03:25:15;;;;;;;4.67;4.13;;;6.30;99.90;;;;;;5075986;28;20929;-43
2021/12/27 03:27:41;;;;;;;4.60;4.00;;;6.00;99.90;;;;;;5060763;28;20428;-45
2021/12/27 03:30:10;;;;;;;5.07;4.20;;;6.00;99.90;;;;;;5064878;28;20419;-45
2021/12/27 03:32:36;;;;;;;4.37;3.97;;;6.00;99.90;;;;;;5069842;28;20415;-46
2021/12/27 03:35:10;;;;;;;4.77;4.30;;;6.10;99.90;;;;;;5069578;28;20423;-43
2021/12/27 03:37:38;;;;;;;5.57;4.73;;;6.20;99.90;;;;;;5070157;28;20415;-43
2021/12/27 03:40:06;;;;;;;5.63;5.13;;;6.10;99.90;;;;;;5069934;28;20470;-42
2021/12/27 03:42:32;;;;;;;4.80;4.40;;;6.10;99.90;;;;;;5067856;28;20422;-43
2021/12/27 03:44:57;;;;;;;5.70;4.80;;;5.90;99.90;;;;;;5058813;28;20428;-43
2021/12/27 03:47:23;;;;;;;5.10;4.60;;;5.90;99.90;;;;;;5069629;28;20794;-43
2021/12/27 03:49:49;;;;;;;4.90;4.23;;;6.00;99.90;;;;;;5069364;28;20569;-45
2021/12/27 03:52:14;;;;;;;5.03;4.47;;;6.00;99.90;;;;;;5069972;28;20730;-43
2021/12/27 03:54:40;;;;;;;5.53;4.90;;;6.20;99.90;;;;;;5069056;28;20189;-43
2021/12/27 03:57:07;;;;;;;5.90;5.30;;;6.10;99.90;;;;;;5069613;28;20196;-42
2021/12/27 03:59:49;;;;;;;5.70;5.17;;;6.10;99.90;;;;;;5057112;28;20331;-43
2021/12/27 04:02:15;;;;;;;7.27;5.63;;;6.10;99.90;;;;;;5067936;28;20572;-43
2021/12/27 04:04:42;;;;;;;6.17;5.27;;;6.20;99.90;;;;;;5068924;28;20407;-43
2021/12/27 04:07:09;;;;;;;5.77;5.10;;;6.10;99.90;;;;;;5069636;28;20501;-44
2021/12/27 04:09:36;;;;;;;6.00;5.40;;;6.10;99.90;;;;;;5069410;28;20420;-43
2021/12/27 04:12:03;;;;;;;5.67;5.17;;;6.20;99.90;;;;;;5069515;28;20513;-44
2021/12/27 04:14:28;;;;;;;5.30;4.80;;;6.20;99.90;;;;;;5063445;28;20423;-43
2021/12/27 04:16:54;;;;;;;5.60;5.10;;;6.10;99.90;;;;;;5069344;28;20430;-43
2021/12/27 04:19:20;;;;;;;5.40;4.90;;;6.10;99.90;;;;;;5081208;28;20247;-43
2021/12/27 04:21:46;;;;;;;5.73;5.20;;;6.30;99.90;;;;;;5088544;28;20190;-43
2021/12/27 04:24:12;;;;;;;5.50;4.73;;;6.10;99.90;;;;;;5088929;28;20829;-43
2021/12/27 04:26:38;;;;;;;4.80;4.23;;;6.20;99.90;;;;;;5056841;28;20463;-43
2021/12/27 04:29:04;;;;;;;5.77;4.67;;;6.30;99.90;;;;;;5075731;28;20192;-43
2021/12/27 04:31:30;;;;;;;5.00;4.50;;;6.10;99.90;;;;;;5068944;28;20442;-43
2021/12/27 04:33:56;;;;;;;5.30;4.57;;;6.40;99.90;;;;;;5068762;28;20431;-43
2021/12/27 04:36:22;;;;;;;5.67;5.10;;;6.10;99.90;;;;;;5068532;28;20937;-43
2021/12/27 04:38:48;;;;;;;4.83;4.30;;;6.20;99.90;;;;;;5068861;28;20422;-43
2021/12/27 04:41:18;;;;;;;5.20;4.57;;;6.20;99.90;;;;;;5069132;28;20274;-43
2021/12/27 04:43:44;;;;;;;4.93;4.53;;;6.20;99.90;;;;;;5060124;28;20787;-43
2021/12/27 04:46:09;;;;;;;5.40;4.70;;;6.30;99.90;;;;;;5067862;28;20420;-43
2021/12/27 04:48:35;;;;;;;4.73;4.27;;;6.10;99.90;;;;;;5068880;28;20288;-42
2021/12/27 04:51:01;;;;;;;5.53;4.97;;;6.30;99.90;;;;;;5068773;28;20262;-43
2021/12/27 04:53:26;;;;;;;4.67;4.20;;;6.20;99.90;;;;;;5067897;28;20648;-43
2021/12/27 04:55:52;;;;;;;5.73;5.10;;;6.30;99.90;;;;;;5068440;28;20318;-43
2021/12/27 04:58:21;;;;;;;5.17;4.67;;;6.10;99.90;;;;;;5063764;28;20652;-43
2021/12/27 05:00:47;;;;;;;6.27;5.23;;;6.10;99.90;;;;;;5055689;28;20207;-43
2021/12/27 05:03:13;;;;;;;4.60;4.20;;;6.40;99.90;;;;;;5061470;28;20419;-43
2021/12/27 05:05:44;;;;;;;5.67;5.17;;;6.10;99.90;;;;;;5083987;28;20431;-42
2021/12/27 05:08:11;;;;;;;4.80;4.23;;;6.00;99.90;;;;;;5067976;28;20674;-44
2021/12/27 05:10:38;;;;;;;5.50;4.73;;;6.30;99.90;;;;;;5068130;28;20892;-44
2021/12/27 05:13:04;;;;;;;5.70;5.20;;;6.20;99.90;;;;;;5066405;28;20415;-43
2021/12/27 05:15:30;;;;;;;5.80;5.20;;;6.00;99.90;;;;;;5056786;28;20857;-43
2021/12/27 05:17:55;;;;;;;5.47;4.90;;;6.10;99.90;;;;;;5068153;28;20786;-44
2021/12/27 05:20:21;;;;;;;6.03;5.37;;;6.30;99.90;;;;;;5088329;28;20215;-43
2021/12/27 05:22:48;;;;;;;6.63;5.80;;;6.30;99.90;;;;;;5077297;28;20185;-43
2021/12/27 05:25:16;;;;;;;6.70;5.50;;;6.20;99.90;;;;;;5072828;28;20405;-43
2021/12/27 05:27:43;;;;;;;6.50;5.47;;;6.20;99.90;;;;;;5077272;28;20414;-43
2021/12/27 05:30:11;;;;;;;6.00;5.40;;;6.10;99.90;;;;;;5063105;28;20601;-42
2021/12/27 05:32:38;;;;;;;7.00;5.90;;;6.00;99.90;;;;;;5062268;28;20577;-43
2021/12/27 05:35:05;;;;;;;7.73;5.70;;;5.90;99.90;;;;;;5066413;28;20896;-45
2021/12/27 05:37:31;;;;;;;6.83;6.13;;;6.10;99.90;;;;;;5068182;28;20419;-44
2021/12/27 05:40:03;;;;;;;5.73;5.17;;;5.90;99.90;;;;;;5067754;28;20447;-43
2021/12/27 05:42:29;;;;;;;5.77;5.17;;;6.00;99.90;;;;;;5063804;28;20431;-43
2021/12/27 05:44:54;;;;;;;6.00;5.40;;;6.10;99.90;;;;;;5056797;28;20428;-42
2021/12/27 05:47:20;;;;;;;5.70;4.90;;;5.90;99.90;;;;;;5067476;28;20668;-42
2021/12/27 05:49:45;;;;;;;6.10;5.50;;;5.90;99.90;;;;;;5059572;28;20214;-44
2021/12/27 05:52:11;;;;;;;5.73;4.93;;;5.90;99.90;;;;;;5064279;28;20556;-43
2021/12/27 05:54:37;;;;;;;7.13;6.23;;;6.00;99.90;;;;;;5066731;28;20202;-43
2021/12/27 05:57:03;;;;;;;6.30;5.37;;;6.00;99.90;;;;;;5067167;28;20219;-43
2021/12/27 05:59:28;;;;;;;5.67;4.93;;;6.00;99.90;;;;;;5059751;28;20768;-42
2021/12/27 06:01:54;;;;;;;6.00;5.40;;;6.10;99.90;;;;;;5064843;28;20447;-43
2021/12/27 06:04:20;;;;;;;8.93;4.93;;;6.20;99.90;;;;;;5075381;28;20681;-43
2021/12/27 06:06:45;;;;;;;5.40;4.67;;;6.10;99.90;;;;;;5087750;28;20176;-43
2021/12/27 06:09:11;;;;;;;6.10;5.50;;;6.10;99.90;;;;;;5076176;28;20198;-44
2021/12/27 06:11:37;;;;;;;7.13;5.47;;;6.20;99.90;;;;;;5087073;28;20658;-43
2021/12/27 06:14:02;;;;;;;5.80;5.13;;;6.20;99.90;;;;;;5080387;28;20181;-43
2021/12/27 06:16:28;;;;;;;5.80;5.10;;;6.00;99.90;;;;;;5067281;28;20705;-43
2021/12/27 06:18:54;;;;;;;6.50;5.63;;;6.10;99.90;;;;;;5076618;28;20187;-42
2021/12/27 06:21:20;;;;;;;6.27;5.67;;;6.00;99.90;;;;;;5086835;28;20495;-47
2021/12/27 06:23:46;;;;;;;6.40;5.40;;;6.20;99.90;;;;;;5079163;28;20188;-42
2021/12/27 06:26:12;;;;;;;6.10;5.47;;;6.40;99.90;;;;;;5058276;28;20223;-43
2021/12/27 06:28:38;;;;;;;5.93;4.77;;;6.30;99.90;;;;;;5066360;28;20411;-43
2021/12/27 06:31:05;;;;;;;6.20;5.60;;;6.50;99.90;;;;;;5063380;28;20811;-43
2021/12/27 06:33:30;;;;;;;6.00;5.20;;;6.30;99.90;;;;;;5065971;28;20472;-43
2021/12/27 06:35:56;;;;;;;6.60;6.00;;;6.40;99.90;;;;;;5066809;28;20764;-43
2021/12/27 06:38:23;;;;;;;6.00;5.37;;;6.30;99.90;;;;;;5065401;28;20185;-43
2021/12/27 06:40:50;;;;;;;6.03;5.43;;;6.30;99.90;;;;;;5066692;28;20551;-43
2021/12/27 06:43:16;;;;;;;5.87;5.07;;;6.40;99.90;;;;;;5067170;28;20432;-43
2021/12/27 06:45:42;;;;;;;5.83;5.23;;;6.30;99.90;;;;;;5060976;28;20479;-43
2021/12/27 06:48:08;;;;;;;7.03;6.33;;;6.30;99.90;;;;;;5065984;28;20905;-42
2021/12/27 06:50:34;;;;;;;8.90;5.80;;;6.40;99.90;;;;;;5067269;28;20418;-43
2021/12/27 06:53:00;;;;;;;7.13;5.97;;;6.30;99.90;;;;;;5065307;28;20426;-43
2021/12/27 06:55:26;;;;;;;7.40;5.43;;;6.30;99.90;;;;;;5066902;28;20181;-44
2021/12/27 06:57:52;;;;;;;7.47;5.57;;;6.30;99.90;;;;;;5063912;28;20203;-46
2021/12/27 07:00:19;;;;;;;6.30;5.53;;;6.10;99.90;;;;;;5061049;28;20209;-44
2021/12/27 07:02:45;;;;;;;5.70;5.10;;;6.40;99.90;;;;;;5066164;28;20411;-43
2021/12/27 07:05:12;;;;;;;6.57;5.40;;;6.40;99.90;;;;;;5066576;28;20462;-45
2021/12/27 07:07:39;;;;;;;7.03;5.70;;;6.40;99.90;;;;;;5066663;28;20395;-43
2021/12/27 07:10:09;;;;;;;6.93;5.47;;;6.50;99.90;;;;;;5065538;28;20978;-43
2021/12/27 07:12:34;;;;;;;5.43;4.83;;;6.60;99.90;;;;;;5065998;28;20446;-46
2021/12/27 07:15:00;;;;;;;6.77;5.30;;;6.30;99.90;;;;;;5056804;28;20432;-43
2021/12/27 07:17:26;;;;;;;8.47;5.90;;;6.50;99.90;;;;;;5060832;28;20599;-47
2021/12/27 07:19:52;;;;;;;6.90;6.00;;;6.30;99.90;;;;;;5066927;28;20201;-43
2021/12/27 07:22:18;;;;;;;7.40;6.20;;;6.50;99.90;;;;;;5066420;28;20423;-42
2021/12/27 07:24:44;;;;;;;7.97;6.60;;;6.60;99.90;;;;;;5065534;28;21209;-48
2021/12/27 07:27:10;;;;;;;8.50;7.60;;;6.60;99.90;;;;;;5064337;28;20427;-43
2021/12/27 07:29:36;;;;;;;7.40;5.87;;;6.60;99.90;;;;;;5072516;28;20871;-42
2021/12/27 07:32:03;;;;;;;8.80;6.27;;;6.60;99.90;;;;;;5062355;28;20452;-42
2021/12/27 07:34:29;;;;;;;6.30;5.70;;;6.70;99.90;;;;;;5070094;28;20529;-42
2021/12/27 07:36:56;;;;;;;6.40;5.60;;;6.80;99.90;;;;;;5090350;28;20995;-42
2021/12/27 07:39:23;;;;;;;7.30;5.70;;;6.70;99.90;;;;;;5077919;28;20627;-43
2021/12/27 07:41:49;;;;;;;7.10;6.07;;;6.80;99.90;;;;;;5090637;28;20531;-43
2021/12/27 07:44:16;;;;;;;6.43;5.47;;;6.80;99.90;;;;;;5086301;28;20494;-42
2021/12/27 07:46:43;;;;;;;6.40;5.77;;;6.70;99.90;;;;;;5067337;28;20428;-43
2021/12/27 07:49:10;;;;;;;6.70;5.40;;;6.50;99.90;;;;;;5070021;28;20420;-43
2021/12/27 07:51:36;;;;;;;8.23;5.83;;;6.60;99.90;;;;;;5069100;28;20442;-44
2021/12/27 07:54:02;;;;;;;7.27;5.53;;;6.40;99.90;;;;;;5069384;28;20427;-43
2021/12/27 07:56:28;;;;;;;6.27;5.67;;;6.70;99.90;;;;;;5069053;28;20835;-43
2021/12/27 07:58:54;;;;;;;7.53;6.43;;;6.80;99.90;;;;;;5072411;28;20427;-44
2021/12/27 08:01:19;;;;;;;7.20;5.80;;;6.80;99.90;;;;;;5065988;28;20192;-46
2021/12/27 08:03:45;;;;;;;8.00;6.83;;;6.60;99.90;;;;;;5069121;28;20266;-43
2021/12/27 08:06:11;;;;;;;7.00;6.10;;;6.80;99.90;;;;;;5068937;28;20610;-43
2021/12/27 08:08:37;;;;;;;7.43;6.43;;;6.60;99.90;;;;;;5069731;28;20239;-44
2021/12/27 08:11:03;;;;;;;7.23;6.20;;;6.60;99.90;;;;;;5064453;28;20193;-43
2021/12/27 08:13:29;;;;;;;7.00;6.20;;;6.70;99.90;;;;;;5086871;28;20670;-43
2021/12/27 08:15:55;;;;;;;5.43;4.87;;;6.80;99.90;;;;;;5064785;28;20447;-44
2021/12/27 08:18:21;;;;;;;7.30;6.23;;;6.70;99.90;;;;;;5069911;28;20423;-42
2021/12/27 08:20:48;;;;;;;7.20;6.03;;;6.60;99.90;;;;;;5080047;28;20200;-43
2021/12/27 08:23:14;;;;;;;9.37;6.37;;;6.60;99.90;;;;;;5085426;28;20423;-42
2021/12/27 08:25:40;;;;;;;6.23;5.60;;;6.70;99.90;;;;;;5057704;28;20431;-44
2021/12/27 08:28:06;;;;;;;9.53;6.63;;;6.70;99.90;;;;;;5066939;28;20419;-42
2021/12/27 08:30:32;;;;;;;6.77;6.07;;;6.60;99.90;;;;;;5060887;28;20538;-44
2021/12/27 08:32:59;;;;;;;7.03;6.27;;;6.60;99.90;;;;;;5065892;28;20705;-43
2021/12/27 08:35:26;;;;;;;6.23;5.63;;;6.60;99.90;;;;;;5068734;28;20181;-43
2021/12/27 08:37:52;;;;;;;8.80;5.80;;;6.70;99.90;;;;;;5064319;28;20702;-44
2021/12/27 08:40:18;;;;;;;6.40;5.63;;;6.70;99.90;;;;;;5063377;28;20478;-44
2021/12/27 08:42:44;;;;;;;6.83;5.90;;;6.70;99.90;;;;;;5068081;28;20424;-43
2021/12/27 08:45:11;;;;;;;8.50;6.00;;;6.90;99.90;;;;;;5062520;28;20569;-43
2021/12/27 08:47:37;;;;;;;8.67;6.30;;;7.20;99.90;;;;;;5065840;28;20427;-46
2021/12/27 08:50:05;;;;;;;11.50;5.50;;;7.10;99.90;;;;;;5069711;28;20415;-43
2021/12/27 08:52:31;;;;;;;6.07;5.00;;;7.30;99.90;;;;;;5068904;28;20840;-45
2021/12/27 08:54:58;;;;;;;6.60;5.97;;;7.40;99.90;;;;;;5067902;28;20450;-45
2021/12/27 08:57:23;;;;;;;6.10;5.50;;;7.80;99.90;;;;;;5087318;28;20875;-44
2021/12/27 08:59:50;;;;;;;9.20;5.27;;;7.60;99.90;;;;;;5083658;28;20450;-45
2021/12/27 09:02:15;;;;;;;5.20;4.70;;;7.70;99.90;;;;;;5047597;28;20181;-44
2021/12/27 09:04:43;;;;;;;5.93;4.93;;;7.50;99.90;;;;;;5062881;28;20783;-43
2021/12/27 09:07:09;;;;;;;6.90;5.20;;;7.70;99.90;;;;;;5068630;28;20199;-44
2021/12/27 09:09:35;;;;;;;6.30;5.00;;;7.70;99.90;;;;;;5068081;28;20419;-43
2021/12/27 09:12:01;;;;;;;5.63;4.80;;;8.00;99.90;;;;;;5068498;28;20450;-47
2021/12/27 09:14:26;;;;;;;6.10;4.73;;;8.00;99.90;;;;;;5083335;28;20229;-43
2021/12/27 09:16:52;;;;;;;4.80;4.30;;;8.10;99.90;;;;;;5055539;28;20693;-43
2021/12/27 09:19:18;;;;;;;5.10;4.60;;;8.00;99.90;;;;;;5066529;28;20205;-44
2021/12/27 09:21:43;;;;;;;5.60;4.87;;;8.20;99.90;;;;;;5067930;28;20270;-43
2021/12/27 09:24:09;;;;;;;5.80;5.23;;;8.30;99.90;;;;;;5076542;28;20272;-44
2021/12/27 09:26:35;;;;;;;5.73;4.33;;;8.30;99.90;;;;;;5064983;28;20180;-44
2021/12/27 09:29:01;;;;;;;4.80;4.30;;;8.50;99.90;;;;;;5068255;28;20177;-43
2021/12/27 09:31:27;;;;;;;6.10;4.53;;;8.30;99.90;;;;;;5055455;28;20444;-44
2021/12/27 09:33:53;;;;;;;6.40;5.07;;;8.30;99.90;;;;;;5064314;28;20450;-43
2021/12/27 09:36:18;;;;;;;5.50;4.10;;;8.50;99.90;;;;;;5067704;28;20196;-43
2021/12/27 09:38:45;;;;;;;5.23;4.63;;;8.70;99.90;;;;;;5067844;28;20634;-44
2021/12/27 09:41:12;;;;;;;5.37;4.33;;;9.10;99.90;;;;;;5067769;28;20303;-44
2021/12/27 09:43:39;;;;;;;4.30;3.90;;;9.00;99.90;;;;;;5067377;28;20427;-43
2021/12/27 09:46:06;;;;;;;4.27;3.57;;;9.10;99.90;;;;;;5062399;28;20487;-43
2021/12/27 09:48:33;;;;;;;3.97;3.60;;;9.10;99.90;;;;;;5062093;28;20434;-43
2021/12/27 09:50:59;;;;;;;3.70;2.97;;;9.20;99.90;;;;;;5066202;28;20806;-48
2021/12/27 09:53:26;;;;;;;6.00;3.70;;;9.40;99.90;;;;;;5066781;28;20427;-43
2021/12/27 09:55:52;;;;;;;4.00;3.50;;;9.50;99.90;;;;;;5066121;28;20437;-43
2021/12/27 09:58:19;;;;;;;3.70;3.30;;;9.50;99.90;;;;;;5045252;28;20444;-45
2021/12/27 10:00:46;;;;;;;3.30;3.00;;;9.80;99.90;;;;;;5058143;28;20794;-43
2021/12/27 10:03:12;;;;;;;4.47;3.40;;;10.20;99.90;;;;;;5062989;28;20828;-44
2021/12/27 10:05:38;;;;;;;3.47;3.10;;;10.60;99.90;;;;;;5066041;28;20424;-44
2021/12/27 10:08:05;;;;;;;4.00;3.00;;;11.00;99.90;;;;;;5067435;28;20419;-43
2021/12/27 10:10:34;;;;;;;4.17;3.43;;;11.20;99.90;;;;;;5055914;28;20487;-44
2021/12/27 10:13:00;;;;;;;4.10;3.40;;;11.50;99.90;;;;;;5086930;28;20422;-43
2021/12/27 10:15:52;;;;;;;3.43;3.10;;;11.30;99.90;;;;;;5084232;28;20910;-43
2021/12/27 10:18:18;;;;;;;3.07;2.77;;;10.90;99.90;;;;;;5061578;28;20588;-43
2021/12/27 10:20:45;;;;;;;4.07;3.67;;;10.60;99.90;;;;;;5067160;28;20920;-43
2021/12/27 10:23:12;;;;;;;3.03;2.70;;;10.30;99.90;;;;;;5066904;28;20609;-43
2021/12/27 10:25:38;;;;;;;4.40;3.17;;;10.00;99.90;;;;;;5066813;28;20472;-43
2021/12/27 10:28:05;;;;;;;3.53;3.23;;;9.70;99.90;;;;;;5066946;28;20466;-43
2021/12/27 10:30:33;;;;;;;4.33;3.20;;;9.50;99.90;;;;;;5065136;28;20434;-43
2021/12/27 10:33:24;;;;;;;2.87;2.57;;;9.40;99.90;;;;;;5055067;28;20451;-42
2021/12/27 10:35:56;;;;;;;4.50;3.00;;;9.30;99.90;;;;;;5065488;28;20429;-43
2021/12/27 10:38:36;;;;;;;3.00;2.40;;;9.10;99.90;;;;;;5065699;28;20423;-42
2021/12/27 10:41:10;;;;;;;3.80;2.63;;;9.20;99.90;;;;;;5066679;28;20478;-42
2021/12/27 10:43:45;;;;;;;5.07;3.23;;;9.10;99.90;;;;;;5065398;28;20792;-44
2021/12/27 10:46:17;;;;;;;4.53;3.10;;;9.30;99.90;;;;;;5062041;28;20462;-42
2021/12/27 10:48:46;;;;;;;4.60;3.30;;;9.10;99.90;;;;;;5061631;28;20514;-43
2021/12/27 10:51:12;;;;;;;4.70;2.93;;;9.10;99.90;;;;;;5067099;28;20494;-43
2021/12/27 10:53:47;;;;;;;3.67;2.90;;;9.20;99.90;;;;;;5066550;28;20446;-42
2021/12/27 10:56:15;;;;;;;3.80;2.87;;;9.10;99.90;;;;;;5066884;28;20430;-44
2021/12/27 10:58:52;;;;;;;3.33;3.03;;;8.90;99.90;;;;;;5066682;28;20432;-43
2021/12/27 11:01:20;;;;;;;3.60;2.80;;;8.90;99.90;;;;;;5061039;28;20797;-43
2021/12/27 11:03:50;;;;;;;4.10;3.10;;;8.90;99.90;;;;;;5061995;28;20484;-43
2021/12/27 11:06:25;;;;;;;4.00;3.17;;;8.80;99.90;;;;;;5067114;28;20427;-43
2021/12/27 11:08:52;;;;;;;3.83;3.20;;;8.80;99.90;;;;;;5067855;28;20430;-43
2021/12/27 11:11:21;;;;;;;3.67;2.97;;;9.10;99.90;;;;;;5069565;28;20419;-42
2021/12/27 11:13:48;;;;;;;3.80;3.50;;;8.80;99.90;;;;;;5068428;28;20423;-43
2021/12/27 11:16:15;;;;;;;4.80;3.00;;;8.90;99.90;;;;;;5065863;28;20451;-42
2021/12/27 11:18:41;;;;;;;3.80;3.40;;;8.90;99.90;;;;;;5065203;28;20439;-43
2021/12/27 11:21:31;;;;;;;3.90;3.50;;;9.00;99.90;;;;;;5070308;28;20459;-42
2021/12/27 11:24:00;;;;;;;3.47;3.17;;;8.90;99.90;;;;;;5050859;28;20529;-46
2021/12/27 11:26:33;;;;;;;3.40;3.10;;;9.10;99.90;;;;;;5068971;28;20425;-43
2021/12/27 11:29:28;;;;;;;3.77;2.93;;;9.30;99.90;;;;;;5068903;28;20423;-43
2021/12/27 11:32:12;;;;;;;3.77;3.37;;;9.20;99.90;;;;;;5040643;28;20509;-42
2021/12/27 11:34:59;;;;;;;3.40;3.10;;;9.20;99.90;;;;;;5067540;28;20428;-43
2021/12/27 11:37:40;;;;;;;3.30;3.00;;;9.00;99.90;;;;;;5072119;28;20430;-43
2021/12/27 11:40:09;;;;;;;3.10;2.80;;;9.00;99.90;;;;;;5083578;28;20490;-44
2021/12/27 11:42:58;;;;;;;3.30;2.80;;;9.10;99.90;;;;;;5075946;28;20419;-45
2021/12/27 11:45:45;;;;;;;3.47;2.80;;;9.20;99.90;;;;;;5083857;28;20434;-44
2021/12/27 11:48:14;;;;;;;3.43;3.13;;;9.10;99.90;;;;;;5049773;28;21031;-43
2021/12/27 11:50:58;;;;;;;3.63;3.33;;;9.00;99.90;;;;;;5069270;28;20899;-42
2021/12/27 11:53:34;;;;;;;4.30;3.40;;;9.20;99.90;;;;;;5069347;28;20454;-42
2021/12/27 11:56:03;;;;;;;3.10;2.70;;;9.60;99.90;;;;;;5069656;28;20419;-43
2021/12/27 11:58:35;;;;;;;3.60;2.60;;;9.40;99.90;;;;;;5069596;28;20446;-43
2021/12/27 12:01:21;;;;;;;3.87;3.20;;;9.50;99.90;;;;;;5066617;28;20493;-44
2021/12/27 12:03:48;;;;;;;3.20;2.80;;;10.10;99.90;;;;;;5055090;28;20416;-44
2021/12/27 12:06:35;;;;;;;3.23;2.60;;;11.30;99.90;;;;;;5068227;28;20427;-43
2021/12/27 12:09:08;;;;;;;2.47;2.27;;;12.90;99.90;;;;;;5058054;28;20857;-43
2021/12/27 12:11:33;;;;;;;2.53;2.33;;;13.60;99.90;;;;;;5068150;28;20437;-44
2021/12/27 12:14:37;;;;;;;2.50;2.20;;;13.40;99.90;;;;;;5068609;28;20437;-44
2021/12/27 12:17:06;;;;;;;3.60;2.23;;;12.70;99.90;;;;;;5075009;28;20426;-43
2021/12/27 12:19:42;;;;;;;3.80;2.50;;;12.20;99.90;;;;;;5064294;28;20451;-44
2021/12/27 12:22:33;;;;;;;2.53;2.33;;;12.10;99.90;;;;;;5068684;28;20438;-45
2021/12/27 12:25:20;;;;;;;2.00;1.80;;;12.40;99.90;;;;;;5068606;28;20427;-42
2021/12/27 12:27:55;;;;;;;2.60;2.40;;;12.10;99.90;;;;;;5069301;28;20878;-44
2021/12/27 12:30:22;;;;;;;2.70;2.33;;;11.50;99.90;;;;;;5069321;28;20427;-43
2021/12/27 12:33:00;;;;;;;2.47;2.27;;;11.10;99.90;;;;;;5059816;28;20458;-45
2021/12/27 12:35:37;;;;;;;2.77;2.50;;;11.00;99.90;;;;;;5066439;28;20434;-45
2021/12/27 12:38:13;;;;;;;2.87;2.30;;;10.60;99.90;;;;;;5068546;28;20422;-42
2021/12/27 12:40:40;;;;;;;2.90;2.60;;;10.50;99.90;;;;;;5068771;28;20991;-43
2021/12/27 12:43:06;;;;;;;2.60;2.40;;;10.20;99.90;;;;;;5068252;28;20423;-42
2021/12/27 12:45:33;;;;;;;2.27;2.07;;;10.20;99.90;;;;;;5068619;28;20423;-44
2021/12/27 12:47:59;;;;;;;2.97;2.67;;;9.80;99.90;;;;;;5059138;28;20436;-44
2021/12/27 12:50:25;;;;;;;2.73;2.53;;;9.80;99.90;;;;;;5068566;28;20434;-43
2021/12/27 12:52:54;;;;;;;3.00;2.10;;;9.80;99.90;;;;;;5068722;28;20488;-42
2021/12/27 12:55:22;;;;;;;2.70;2.47;;;9.60;99.90;;;;;;5068301;28;20431;-43
2021/12/27 12:57:49;;;;;;;3.97;3.60;;;9.60;99.90;;;;;;5068382;28;20539;-43
2021/12/27 13:00:40;;;;;;;3.30;3.00;;;9.50;99.90;;;;;;5067214;28;20531;-43